Long Beach, CA

10:05 AM PST on November 24, 2014 (GMT -0800)
Long Beach | Change Station
CLOSE
Current Station
Airport
Location: Long Beach,
Elevation: 39 ft
Nearby Weather Stations
Active Advisory: Fire Weather Watch

Elev 39 ft 33.81 °N, 118.15 °W | Updated 12 minutes ago

Clear
Clear
70 °F
Feels Like 70 °F
N
5
Wind Variable Wind from NNW

Today
High -- | Low -- °F
--% Chance of Precip.
Yesterday
High -- | Low -- °F
Precip. -- in
6:33 AM 4:45 PM
Waxing Crescent, 6% visible
Pressure 30.24 in
Visibility 10.0 miles
Clouds Clear
Dew Point 22 °F
Humidity 16%
Rainfall 0.00 in
Snow Depth Not available.
UV 3 out of 12
Pollen 3.30 out of 12
Air Quality Not available.
Flu Activity Not available.
METAR KLGB 241753Z 33004KT 10SM CLR 21/M06 A3024 RMK AO2 SLP238 T02111056 10211 20111 51022

More Conditions Fewer Conditions

Pressure 30.24 in
Visibility 10.0 miles
Clouds Clear
Dew Point 22 °F
Humidity 16%
Rainfall 0.00 in
Snow Depth Not available.
UV 3 out of 12
Pollen 3.30 out of 12
Air Quality Not available.
Flu Activity Not available.
METAR KLGB 241753Z 33004KT 10SM CLR 21/M06 A3024 RMK AO2 SLP238 T02111056 10211 20111 51022

More Conditions Fewer Conditions

10-Day Weather Forecast

Almanac

Astronomy

Nov. 24, 2014 Rise Set
Actual Time
Civil Twilight
Nautical Twilight
Astronomical Twilight
Moon
Length of Visible Light
Length of Day
Tomorrow will be .
, % of the Moon is Illuminated

Today's Extremes

State Highs State Lows

Community

WunderPhotos

Upload Photos

1,773,381 photos uploaded!

WunderBlogs® & News

Nearby

Air Quality

  Air Quality AQ Index Pollutant
Not available.

Snow Depth

Station Depth Elevation

Earthquake Activity

City Distance Mag. Time & Date
Minimum magnitude displayed is 2.5.

Coastal Water Temperatures

Place Temperature

Nearby Weather Stations